createdAt,value
2022-12-25T00:01:24.752Z,7.07
2022-12-25T00:03:54.893Z,8.45
2022-12-25T00:06:26.650Z,7.32
2022-12-25T00:08:54.123Z,6.25
2022-12-25T00:11:24.571Z,6.85
2022-12-25T00:13:55.744Z,6.07
2022-12-25T00:16:27.478Z,7.97
2022-12-25T00:18:58.858Z,7.10
2022-12-25T00:21:29.107Z,5.75
2022-12-25T00:23:57.002Z,5.38
2022-12-25T00:28:58.248Z,5.55
2022-12-25T00:31:30.856Z,5.68
2022-12-25T00:33:59.088Z,6.65
2022-12-25T00:36:41.148Z,5.90
2022-12-25T00:39:12.261Z,6.00
2022-12-25T00:41:57.202Z,5.20
2022-12-25T00:44:26.105Z,5.38
2022-12-25T00:47:00.858Z,5.22
2022-12-25T00:49:30.027Z,5.22
2022-12-25T00:51:59.061Z,7.72
2022-12-25T00:54:33.942Z,6.05
2022-12-25T00:57:01.645Z,6.05
2022-12-25T00:59:38.200Z,5.63
2022-12-25T01:02:28.540Z,5.80
2022-12-25T01:05:03.423Z,5.97
2022-12-25T01:07:41.355Z,5.45
2022-12-25T01:10:25.229Z,5.50
2022-12-25T01:12:55.283Z,4.97
2022-12-25T01:15:29.294Z,6.22
2022-12-25T01:17:58.801Z,6.47
2022-12-25T01:20:29.013Z,5.22
2022-12-25T01:22:56.650Z,5.72
2022-12-25T01:25:24.071Z,4.85
2022-12-25T01:27:58.657Z,5.32
2022-12-25T01:30:27.495Z,4.45
2022-12-25T01:32:54.874Z,5.13
2022-12-25T01:35:26.640Z,5.85
2022-12-25T01:37:54.217Z,4.65
2022-12-25T01:40:23.883Z,4.70
2022-12-25T01:42:51.405Z,5.00
2022-12-25T01:45:44.533Z,4.55
2022-12-25T01:48:17.670Z,4.55
2022-12-25T01:50:46.392Z,5.15
2022-12-25T01:53:14.683Z,3.90
2022-12-25T01:55:48.054Z,5.68
2022-12-25T01:58:19.159Z,4.80
2022-12-25T02:00:55.851Z,3.42
2022-12-25T02:03:32.100Z,3.58
2022-12-25T02:06:00.206Z,4.22
2022-12-25T02:10:54.753Z,4.80
2022-12-25T02:13:22.161Z,4.07
2022-12-25T02:15:54.765Z,3.50
2022-12-25T02:18:23.807Z,3.40
2022-12-25T02:21:02.358Z,3.10
2022-12-25T02:23:45.677Z,3.45
2022-12-25T02:26:17.590Z,3.88
2022-12-25T02:28:52.467Z,3.78
2022-12-25T02:31:23.236Z,3.67
2022-12-25T02:34:05.928Z,4.00
2022-12-25T02:36:36.024Z,4.05
2022-12-25T02:39:22.538Z,3.05
2022-12-25T02:41:52.817Z,3.65
2022-12-25T02:44:41.438Z,4.47
2022-12-25T02:47:28.193Z,3.05
2022-12-25T02:50:14.275Z,3.73
2022-12-25T02:53:00.764Z,3.03
2022-12-25T02:55:49.128Z,2.97
2022-12-25T02:58:36.078Z,3.78
2022-12-25T03:04:21.020Z,2.92
2022-12-25T03:06:59.061Z,3.63
2022-12-25T03:09:46.581Z,3.65
2022-12-25T03:12:16.692Z,3.60
2022-12-25T03:15:01.482Z,3.03
2022-12-25T03:17:30.293Z,2.92
2022-12-25T03:20:16.707Z,3.10
2022-12-25T03:23:02.645Z,2.88
2022-12-25T03:25:47.862Z,3.55
2022-12-25T03:28:15.467Z,3.05
2022-12-25T03:31:03.159Z,4.78
2022-12-25T03:33:44.882Z,3.80
2022-12-25T03:36:16.913Z,3.55
2022-12-25T03:39:05.202Z,3.13
2022-12-25T03:41:50.685Z,3.05
2022-12-25T03:44:37.164Z,3.95
2022-12-25T03:50:33.869Z,5.20
2022-12-25T03:53:20.375Z,4.18
2022-12-25T03:56:07.980Z,3.22
2022-12-25T04:01:52.771Z,3.70
2022-12-25T04:04:38.001Z,3.95
2022-12-25T04:07:24.268Z,4.43
2022-12-25T04:10:09.355Z,5.10
2022-12-25T04:12:54.512Z,4.45
2022-12-25T04:15:39.703Z,4.13
2022-12-25T04:18:24.656Z,5.32
2022-12-25T04:21:09.535Z,4.32
2022-12-25T04:23:55.560Z,4.07
2022-12-25T04:26:40.679Z,4.85
2022-12-25T04:29:25.741Z,4.35
2022-12-25T04:32:10.804Z,4.30
2022-12-25T04:34:55.888Z,4.78
2022-12-25T04:37:23.229Z,4.10
2022-12-25T04:39:51.900Z,4.22
2022-12-25T04:42:19.552Z,4.47
2022-12-25T04:44:46.908Z,4.07
2022-12-25T04:47:14.271Z,3.72
2022-12-25T04:49:41.635Z,4.00
2022-12-25T04:52:09.012Z,3.92
2022-12-25T04:54:38.072Z,3.55
2022-12-25T04:57:06.782Z,4.07
2022-12-25T04:59:34.252Z,4.10
2022-12-25T05:02:01.702Z,3.60
2022-12-25T05:04:29.132Z,3.70
2022-12-25T05:06:56.607Z,4.78
2022-12-25T05:09:23.934Z,4.18
2022-12-25T05:11:51.320Z,3.90
2022-12-25T05:14:20.669Z,4.00
2022-12-25T05:16:48.175Z,4.47
2022-12-25T05:19:18.243Z,4.40
2022-12-25T05:21:48.860Z,4.50
2022-12-25T05:24:20.909Z,4.25
2022-12-25T05:26:55.886Z,4.40
2022-12-25T05:29:24.692Z,4.00
2022-12-25T05:31:52.657Z,4.18
2022-12-25T05:34:22.852Z,5.18
2022-12-25T05:36:50.444Z,4.32
2022-12-25T05:41:47.466Z,3.92
2022-12-25T05:44:14.814Z,3.47
2022-12-25T05:46:43.563Z,4.15
2022-12-25T05:49:10.954Z,4.22
2022-12-25T05:51:38.390Z,3.85
2022-12-25T05:54:05.829Z,4.35
2022-12-25T05:56:33.181Z,4.38
2022-12-25T05:59:00.518Z,4.70
2022-12-25T06:01:29.091Z,5.35
2022-12-25T06:03:58.361Z,5.20
2022-12-25T06:06:25.870Z,4.72
2022-12-25T06:08:54.149Z,4.55
2022-12-25T06:11:21.505Z,4.88
2022-12-25T06:13:50.669Z,5.32
2022-12-25T06:16:18.325Z,5.32
2022-12-25T06:18:47.103Z,7.45
2022-12-25T06:21:16.882Z,4.93
2022-12-25T06:23:44.844Z,4.90
2022-12-25T06:28:39.830Z,4.45
2022-12-25T06:31:08.517Z,4.70
2022-12-25T06:33:36.241Z,5.20
2022-12-25T06:36:07.431Z,4.82
2022-12-25T06:38:36.129Z,4.38
2022-12-25T06:41:04.298Z,4.97
2022-12-25T06:43:31.630Z,6.03
2022-12-25T06:46:02.684Z,4.72
2022-12-25T06:48:30.134Z,3.97
2022-12-25T06:50:57.511Z,4.32
2022-12-25T06:53:24.848Z,4.85
2022-12-25T06:55:53.559Z,4.10
2022-12-25T06:58:20.915Z,5.18
2022-12-25T07:00:48.280Z,3.92
2022-12-25T07:03:19.091Z,4.80
2022-12-25T07:05:47.228Z,5.38
2022-12-25T07:08:14.805Z,5.13
2022-12-25T07:10:42.143Z,4.80
2022-12-25T07:13:10.804Z,5.55
2022-12-25T07:15:38.172Z,6.03
2022-12-25T07:18:05.566Z,5.28
2022-12-25T07:20:32.905Z,4.32
2022-12-25T07:23:00.241Z,4.30
2022-12-25T07:25:32.097Z,5.13
2022-12-25T07:28:02.701Z,5.40
2022-12-25T07:30:31.442Z,4.82
2022-12-25T07:32:58.820Z,5.38
2022-12-25T07:35:26.200Z,5.00
2022-12-25T07:37:54.099Z,4.88
2022-12-25T07:42:48.742Z,5.10
2022-12-25T07:45:16.073Z,4.82
2022-12-25T07:47:44.754Z,4.90
2022-12-25T07:50:12.310Z,5.05
2022-12-25T07:52:43.645Z,4.95
2022-12-25T07:55:11.335Z,5.35
2022-12-25T07:57:38.746Z,6.88
2022-12-25T08:00:06.822Z,7.85
2022-12-25T08:02:39.351Z,6.80
2022-12-25T08:05:09.112Z,6.78
2022-12-25T08:07:36.557Z,6.82
2022-12-25T08:10:04.084Z,5.70
2022-12-25T08:12:31.425Z,5.55
2022-12-25T08:14:58.767Z,5.10
2022-12-25T08:17:26.142Z,5.15
2022-12-25T08:19:53.471Z,5.25
2022-12-25T08:22:22.157Z,5.18
2022-12-25T08:24:53.908Z,5.18
2022-12-25T08:27:21.843Z,5.65
2022-12-25T08:32:16.536Z,5.97
2022-12-25T08:34:45.286Z,5.03
2022-12-25T08:37:12.664Z,6.00
2022-12-25T08:39:41.523Z,7.13
2022-12-25T08:42:12.957Z,5.72
2022-12-25T08:44:46.287Z,4.75
2022-12-25T08:47:18.249Z,4.45
2022-12-25T08:49:47.443Z,4.68
2022-12-25T08:52:15.368Z,5.13
2022-12-25T08:54:44.538Z,6.50
2022-12-25T08:57:15.035Z,5.10
2022-12-25T08:59:45.921Z,5.22
2022-12-25T09:02:13.444Z,6.03
2022-12-25T09:04:40.942Z,5.00
2022-12-25T09:07:10.274Z,4.70
2022-12-25T09:09:38.055Z,6.10
2022-12-25T09:12:07.066Z,5.30
2022-12-25T09:14:40.955Z,5.47
2022-12-25T09:17:08.569Z,5.60
2022-12-25T09:19:36.077Z,7.50
2022-12-25T09:22:03.566Z,7.40
2022-12-25T09:24:32.143Z,9.77
2022-12-25T09:27:07.804Z,8.68
2022-12-25T09:29:40.766Z,7.75
2022-12-25T09:32:12.606Z,7.38
2022-12-25T09:34:40.134Z,7.90
2022-12-25T09:37:08.292Z,8.65
2022-12-25T09:39:38.210Z,7.07
2022-12-25T09:42:15.143Z,7.63
2022-12-25T09:44:45.721Z,8.35
2022-12-25T09:47:16.906Z,7.88
2022-12-25T09:49:48.401Z,7.72
2022-12-25T09:52:20.684Z,8.25
2022-12-25T09:54:58.602Z,6.55
2022-12-25T09:57:27.949Z,6.72
2022-12-25T09:59:57.321Z,8.63
2022-12-25T10:02:36.420Z,8.68
2022-12-25T10:05:11.853Z,7.65
2022-12-25T10:08:01.116Z,7.85
2022-12-25T10:10:37.579Z,8.80
2022-12-25T10:13:19.429Z,8.75
2022-12-25T10:15:52.247Z,9.93
2022-12-25T10:18:56.051Z,9.25
2022-12-25T10:21:26.581Z,8.18
2022-12-25T10:24:02.495Z,7.85
2022-12-25T10:26:32.600Z,7.45
2022-12-25T10:29:07.847Z,7.95
2022-12-25T10:31:36.260Z,7.05
2022-12-25T10:34:06.104Z,7.53
2022-12-25T10:36:36.324Z,7.15
2022-12-25T10:39:06.303Z,7.32
2022-12-25T10:41:43.578Z,7.35
2022-12-25T10:44:20.559Z,7.18
2022-12-25T10:46:52.009Z,7.65
2022-12-25T10:49:23.796Z,8.02
2022-12-25T10:51:51.672Z,10.25
2022-12-25T10:54:23.708Z,9.15
2022-12-25T10:56:59.183Z,12.63
2022-12-25T10:59:32.244Z,11.77
2022-12-25T11:02:06.847Z,13.38
2022-12-25T11:04:35.894Z,8.60
2022-12-25T11:07:06.753Z,8.18
2022-12-25T11:09:34.400Z,8.63
2022-12-25T11:12:02.128Z,9.13
2022-12-25T11:14:30.869Z,8.38
2022-12-25T11:17:07.916Z,8.38
2022-12-25T11:19:35.529Z,8.52
2022-12-25T11:22:03.788Z,9.38
2022-12-25T11:24:33.185Z,8.52
2022-12-25T11:27:02.241Z,9.75
2022-12-25T11:29:37.065Z,9.45
2022-12-25T11:32:07.891Z,8.05
2022-12-25T11:34:38.344Z,9.55
2022-12-25T11:37:10.661Z,9.60
2022-12-25T11:39:38.927Z,9.20
2022-12-25T11:42:07.651Z,9.13
2022-12-25T11:44:45.187Z,11.27
2022-12-25T11:47:16.540Z,8.77
2022-12-25T11:49:50.294Z,8.43
2022-12-25T11:52:19.055Z,7.80
2022-12-25T11:54:48.714Z,7.80
2022-12-25T11:57:16.079Z,7.35
2022-12-25T11:59:48.650Z,8.02
2022-12-25T12:02:22.774Z,8.68
2022-12-25T12:04:51.848Z,8.52
2022-12-25T12:07:22.634Z,8.60
2022-12-25T12:09:55.782Z,8.48
2022-12-25T12:12:28.142Z,9.32
2022-12-25T12:15:01.392Z,8.52
2022-12-25T12:17:28.776Z,8.23
2022-12-25T12:19:56.107Z,8.10
2022-12-25T12:22:24.689Z,8.65
2022-12-25T12:24:55.092Z,8.38
2022-12-25T12:27:25.022Z,9.98
2022-12-25T12:29:54.563Z,8.77
2022-12-25T12:32:29.828Z,9.80
2022-12-25T12:34:57.692Z,10.43
2022-12-25T12:39:54.399Z,9.27
2022-12-25T12:42:28.121Z,8.45
2022-12-25T12:45:00.846Z,8.15
2022-12-25T12:47:38.316Z,8.10
2022-12-25T12:50:08.131Z,8.00
2022-12-25T12:52:44.571Z,10.25
2022-12-25T12:55:14.700Z,12.23
2022-12-25T12:57:44.527Z,10.60
2022-12-25T13:00:18.698Z,9.85
2022-12-25T13:03:05.148Z,10.93
2022-12-25T13:05:37.756Z,8.88
2022-12-25T13:08:11.872Z,9.65
2022-12-25T13:10:46.014Z,8.15
2022-12-25T13:13:16.002Z,13.52
2022-12-25T13:15:54.034Z,10.07
2022-12-25T13:18:23.546Z,16.73
2022-12-25T13:20:56.122Z,8.52
2022-12-25T13:23:27.418Z,8.73
2022-12-25T13:25:55.650Z,8.40
2022-12-25T13:28:28.442Z,8.32
2022-12-25T13:31:02.177Z,10.98
2022-12-25T13:33:34.005Z,9.88
2022-12-25T13:36:04.798Z,9.40
2022-12-25T13:38:34.440Z,11.00
2022-12-25T13:41:19.435Z,10.23
2022-12-25T13:43:46.846Z,11.30
2022-12-25T13:46:14.828Z,10.45
2022-12-25T13:48:42.620Z,12.10
2022-12-25T13:51:15.630Z,10.95
2022-12-25T13:53:44.981Z,19.98
2022-12-25T13:56:14.344Z,10.95
2022-12-25T13:58:41.957Z,11.82
2022-12-25T14:01:11.562Z,14.68
2022-12-25T14:03:41.511Z,10.73
2022-12-25T14:06:17.507Z,12.80
2022-12-25T14:08:45.810Z,11.77
2022-12-25T14:11:15.422Z,11.90
2022-12-25T14:13:43.976Z,12.77
2022-12-25T14:16:11.783Z,13.52
2022-12-25T14:18:50.688Z,12.43
2022-12-25T14:21:26.520Z,10.45
2022-12-25T14:23:53.991Z,10.27
2022-12-25T14:26:22.304Z,12.30
2022-12-25T14:28:50.237Z,11.75
2022-12-25T14:33:47.043Z,11.10
2022-12-25T14:36:15.062Z,11.60
2022-12-25T14:38:44.133Z,11.70
2022-12-25T14:41:25.965Z,10.70
2022-12-25T14:43:55.878Z,16.70
2022-12-25T14:46:26.051Z,13.68
2022-12-25T14:48:59.525Z,13.32
2022-12-25T14:51:27.810Z,13.65
2022-12-25T14:53:57.472Z,12.75
2022-12-25T14:56:25.999Z,15.88
2022-12-25T14:58:54.880Z,14.35
2022-12-25T15:01:23.779Z,23.02
2022-12-25T15:03:51.369Z,14.35
2022-12-25T15:06:20.077Z,21.27
2022-12-25T15:08:57.550Z,26.75
2022-12-25T15:11:25.096Z,36.40
2022-12-25T15:13:59.152Z,31.20
2022-12-25T15:16:28.908Z,31.48
2022-12-25T15:19:00.395Z,50.47
2022-12-25T15:21:33.167Z,24.92
2022-12-25T15:24:11.701Z,25.13
2022-12-25T15:26:43.938Z,24.63
2022-12-25T15:29:27.571Z,25.70
2022-12-25T15:32:05.298Z,29.55
2022-12-25T15:37:06.724Z,13.75
2022-12-25T15:39:43.074Z,14.40
2022-12-25T15:42:13.729Z,15.43
2022-12-25T15:44:44.593Z,13.23
2022-12-25T15:47:16.432Z,12.48
2022-12-25T15:49:49.028Z,12.10
2022-12-25T15:52:17.847Z,10.05
2022-12-25T15:54:46.711Z,10.68
2022-12-25T15:57:21.544Z,11.60
2022-12-25T15:59:49.030Z,11.70
2022-12-25T16:02:17.947Z,11.52
2022-12-25T16:04:45.716Z,12.55
2022-12-25T16:07:15.309Z,13.68
2022-12-25T16:09:42.701Z,15.63
2022-12-25T16:12:11.391Z,17.75
2022-12-25T16:14:39.074Z,14.20
2022-12-25T16:17:06.431Z,14.75
2022-12-25T16:19:33.826Z,14.98
2022-12-25T16:22:01.206Z,15.85
2022-12-25T16:24:28.566Z,17.83
2022-12-25T16:26:55.922Z,14.32
2022-12-25T16:29:24.652Z,16.55
2022-12-25T16:31:51.989Z,15.43
2022-12-25T16:34:19.414Z,38.03
2022-12-25T16:36:46.907Z,18.85
2022-12-25T16:39:14.350Z,22.60
2022-12-25T16:41:41.687Z,12.93
2022-12-25T16:44:12.466Z,17.27
2022-12-25T16:46:41.975Z,9.38
2022-12-25T16:49:11.909Z,10.55
2022-12-25T16:51:42.101Z,10.32
2022-12-25T16:54:09.818Z,8.88
2022-12-25T16:56:38.467Z,8.63
2022-12-25T16:59:05.872Z,8.15
2022-12-25T17:01:37.912Z,7.97
2022-12-25T17:04:09.290Z,8.38
2022-12-25T17:06:36.922Z,7.90
2022-12-25T17:11:53.738Z,7.68
2022-12-25T17:14:21.334Z,7.40
2022-12-25T17:16:48.844Z,7.60
2022-12-25T17:19:20.889Z,6.80
2022-12-25T17:21:48.358Z,7.25
2022-12-25T17:24:16.200Z,6.72
2022-12-25T17:31:39.696Z,7.43
2022-12-25T17:34:08.072Z,6.80
2022-12-25T17:36:36.838Z,6.38
2022-12-25T17:39:05.235Z,6.20
2022-12-25T17:41:32.794Z,6.22
2022-12-25T17:44:00.161Z,6.28
2022-12-25T17:46:28.549Z,5.72
2022-12-25T17:48:57.462Z,5.35
2022-12-25T17:51:25.998Z,5.80
2022-12-25T17:53:55.701Z,5.47
2022-12-25T17:56:23.911Z,5.60
2022-12-25T17:58:52.010Z,4.95
2022-12-25T18:01:19.659Z,5.75
2022-12-25T18:03:47.796Z,7.40
2022-12-25T18:06:16.831Z,4.85
2022-12-25T18:08:45.614Z,5.80
2022-12-25T18:11:16.412Z,5.63
2022-12-25T18:13:44.914Z,5.50
2022-12-25T18:16:13.022Z,5.72
2022-12-25T18:18:44.074Z,5.13
2022-12-25T18:21:15.301Z,5.32
2022-12-25T18:23:42.643Z,5.53
2022-12-25T18:26:11.800Z,4.78
2022-12-25T18:28:42.225Z,5.95
2022-12-25T18:31:10.181Z,5.10
2022-12-25T18:36:05.198Z,5.60
2022-12-25T18:38:32.663Z,5.63
2022-12-25T18:41:00.308Z,6.82
2022-12-25T18:43:53.847Z,5.65
2022-12-25T18:46:17.476Z,5.70
2022-12-25T18:48:45.152Z,4.72
2022-12-25T18:51:13.504Z,5.20
2022-12-25T18:53:41.457Z,4.78
2022-12-25T18:56:10.087Z,5.80
2022-12-25T18:58:38.396Z,8.15
2022-12-25T19:01:12.771Z,10.68
2022-12-25T19:03:41.711Z,13.45
2022-12-25T19:06:09.455Z,6.85
2022-12-25T19:08:36.827Z,6.22
2022-12-25T19:11:07.081Z,6.28
2022-12-25T19:13:34.653Z,6.78
2022-12-25T19:16:02.085Z,6.00
2022-12-25T19:18:30.637Z,6.30
2022-12-25T19:21:01.296Z,5.68
2022-12-25T19:23:28.685Z,6.05
2022-12-25T19:25:56.065Z,6.85
2022-12-25T19:28:24.884Z,6.30
2022-12-25T19:30:53.783Z,7.05
2022-12-25T19:33:21.373Z,6.97
2022-12-25T19:35:48.953Z,7.40
2022-12-25T19:38:17.690Z,8.25
2022-12-25T19:40:59.988Z,8.02
2022-12-25T19:43:27.816Z,8.73
2022-12-25T19:45:55.261Z,9.63
2022-12-25T19:48:22.668Z,9.05
2022-12-25T19:50:50.407Z,9.52
2022-12-25T19:53:21.368Z,10.75
2022-12-25T19:55:48.701Z,10.70
2022-12-25T19:58:16.080Z,11.20
2022-12-25T20:00:43.452Z,10.50
2022-12-25T20:03:10.884Z,10.43
2022-12-25T20:05:38.288Z,12.23
2022-12-25T20:08:05.867Z,12.02
2022-12-25T20:10:34.596Z,10.43
2022-12-25T20:13:01.953Z,11.20
2022-12-25T20:15:29.698Z,12.23
2022-12-25T20:17:57.021Z,10.52
2022-12-25T20:20:24.360Z,11.40
2022-12-25T20:25:19.533Z,10.82
2022-12-25T20:27:48.300Z,11.38
2022-12-25T20:30:17.369Z,11.07
2022-12-25T20:32:49.946Z,10.98
2022-12-25T20:35:18.090Z,12.32
2022-12-25T20:37:45.816Z,9.95
2022-12-25T20:40:13.509Z,10.73
2022-12-25T20:42:40.893Z,12.10
2022-12-25T20:45:12.320Z,11.02
2022-12-25T20:47:39.712Z,11.55
2022-12-25T20:50:07.820Z,13.57
2022-12-25T20:52:35.177Z,12.38
2022-12-25T20:55:02.642Z,11.30
2022-12-25T20:57:29.989Z,12.00
2022-12-25T20:59:57.334Z,10.98
2022-12-25T21:02:34.793Z,10.85
2022-12-25T21:05:03.567Z,9.88
2022-12-25T21:07:31.041Z,11.40
2022-12-25T21:09:59.635Z,9.63
2022-12-25T21:12:27.023Z,10.10
2022-12-25T21:14:54.409Z,9.50
2022-12-25T21:17:21.944Z,10.68
2022-12-25T21:19:51.380Z,10.90
2022-12-25T21:22:22.882Z,9.57
2022-12-25T21:24:51.863Z,10.23
2022-12-25T21:27:19.217Z,9.57
2022-12-25T21:29:46.601Z,10.13
2022-12-25T21:32:31.639Z,8.43
2022-12-25T21:35:00.329Z,9.90
2022-12-25T21:37:27.667Z,9.43
2022-12-25T21:39:55.010Z,9.60
2022-12-25T21:42:22.409Z,10.15
2022-12-25T21:44:49.839Z,9.20
2022-12-25T21:47:17.244Z,9.10
2022-12-25T21:50:02.290Z,9.43
2022-12-25T21:52:31.048Z,10.20
2022-12-25T21:54:58.453Z,10.07
2022-12-25T21:57:25.850Z,10.75
2022-12-25T21:59:53.200Z,11.63
2022-12-25T22:02:20.681Z,10.55
2022-12-25T22:04:48.117Z,12.50
2022-12-25T22:07:17.166Z,10.80
2022-12-25T22:09:48.514Z,10.98
2022-12-25T22:12:49.040Z,12.00
2022-12-25T22:15:16.435Z,11.10
2022-12-25T22:18:02.007Z,12.63
2022-12-25T22:20:31.027Z,11.75
2022-12-25T22:22:58.964Z,12.68
2022-12-25T22:27:54.989Z,13.32
2022-12-25T22:30:24.191Z,14.57
2022-12-25T22:32:52.150Z,12.30
2022-12-25T22:35:19.929Z,13.85
2022-12-25T22:37:48.074Z,14.52
2022-12-25T22:40:16.860Z,11.40
2022-12-25T22:42:44.355Z,12.52
2022-12-25T22:45:13.584Z,10.25
2022-12-25T22:47:41.453Z,9.70
2022-12-25T22:52:36.104Z,10.52
2022-12-25T22:55:04.319Z,9.95
2022-12-25T22:57:31.712Z,9.60
2022-12-25T22:59:59.110Z,9.68
2022-12-25T23:02:28.118Z,9.27
2022-12-25T23:04:55.596Z,8.77
2022-12-25T23:07:22.970Z,8.02
2022-12-25T23:09:50.547Z,8.15
2022-12-25T23:12:35.195Z,7.85
2022-12-25T23:15:02.677Z,8.05
2022-12-25T23:17:48.691Z,8.55
2022-12-25T23:20:33.013Z,7.68
2022-12-25T23:23:17.820Z,7.82
2022-12-25T23:26:02.934Z,8.18
2022-12-25T23:28:48.121Z,7.55
2022-12-25T23:31:15.524Z,8.85
2022-12-25T23:33:44.314Z,8.77
2022-12-25T23:36:11.663Z,8.00
2022-12-25T23:38:39.171Z,8.40
2022-12-25T23:41:06.647Z,8.40
2022-12-25T23:43:34.040Z,7.35
2022-12-25T23:46:01.837Z,7.68
2022-12-25T23:48:29.455Z,7.18
2022-12-25T23:50:58.144Z,7.15
2022-12-25T23:53:25.628Z,6.25
2022-12-25T23:55:55.764Z,8.13
2022-12-25T23:58:23.401Z,7.88
